createdAt,value
2023-03-17T00:03:41.835Z,93599.66
2023-03-17T00:08:44.367Z,93602.34
2023-03-17T00:13:45.991Z,93605.56
2023-03-17T00:18:50.051Z,93602.09
2023-03-17T00:23:51.780Z,93593.91
2023-03-17T00:28:54.257Z,93591.72
2023-03-17T00:33:57.450Z,93592.94
2023-03-17T00:38:59.698Z,93588.94
2023-03-17T00:44:01.301Z,93577.28
2023-03-17T00:49:14.177Z,93567.81
2023-03-17T00:54:16.515Z,93565.19
2023-03-17T00:59:23.917Z,93560.38
2023-03-17T01:04:26.993Z,93552.34
2023-03-17T01:09:29.147Z,93539.84
2023-03-17T01:14:30.630Z,93534.75
2023-03-17T01:19:33.519Z,93535.44
2023-03-17T01:24:35.154Z,93537.84
2023-03-17T01:29:36.720Z,93525.56
2023-03-17T01:34:39.540Z,93519.78
2023-03-17T01:39:41.086Z,93518.19
2023-03-17T01:44:57.394Z,93514.50
2023-03-17T01:50:06.023Z,93519.72
2023-03-17T01:55:12.061Z,93503.38
2023-03-17T02:00:16.601Z,93492.75
2023-03-17T02:05:22.272Z,93498.84
2023-03-17T02:10:25.815Z,93490.66
2023-03-17T02:15:37.334Z,93495.22
2023-03-17T02:21:23.285Z,93486.38
2023-03-17T02:26:28.636Z,93487.75
2023-03-17T02:31:30.314Z,93491.13
2023-03-17T02:36:31.885Z,93478.47
2023-03-17T02:41:35.531Z,93474.06
2023-03-17T02:46:37.126Z,93472.34
2023-03-17T02:51:38.725Z,93465.63
2023-03-17T02:56:41.647Z,93462.69
2023-03-17T03:01:43.341Z,93470.44
2023-03-17T03:06:45.367Z,93471.53
2023-03-17T03:11:48.394Z,93482.84
2023-03-17T03:16:49.958Z,93481.81
2023-03-17T03:21:51.528Z,93490.06
2023-03-17T03:26:54.454Z,93480.53
2023-03-17T03:31:55.981Z,93489.03
2023-03-17T03:36:57.534Z,93480.25
2023-03-17T03:42:00.390Z,93479.16
2023-03-17T03:47:02.035Z,93496.19
2023-03-17T03:52:03.957Z,93484.66
2023-03-17T03:57:06.768Z,93481.63
2023-03-17T04:02:09.632Z,93486.91
2023-03-17T04:07:11.496Z,93482.97
2023-03-17T04:12:14.509Z,93477.13
2023-03-17T04:17:15.968Z,93472.13
2023-03-17T04:22:17.650Z,93481.97
2023-03-17T04:27:20.686Z,93482.13
2023-03-17T04:32:22.231Z,93468.34
2023-03-17T04:37:23.994Z,93468.50
2023-03-17T04:42:26.926Z,93468.53
2023-03-17T04:47:28.477Z,93466.63
2023-03-17T04:52:30.208Z,93466.16
2023-03-17T04:57:33.040Z,93467.41
2023-03-17T05:02:34.943Z,93471.97
2023-03-17T05:07:36.615Z,93448.25
2023-03-17T05:12:39.412Z,93444.78
2023-03-17T05:17:41.053Z,93447.41
2023-03-17T05:22:42.792Z,93441.97
2023-03-17T05:27:45.621Z,93441.31
2023-03-17T05:32:47.225Z,93442.16
2023-03-17T05:37:48.807Z,93440.56
2023-03-17T05:42:52.105Z,93435.84
2023-03-17T05:47:53.761Z,93442.66
2023-03-17T05:52:55.260Z,93436.78
2023-03-17T05:57:58.177Z,93431.59
2023-03-17T06:02:59.731Z,93435.97
2023-03-17T06:08:01.685Z,93437.53
2023-03-17T06:13:04.639Z,93442.03
2023-03-17T06:18:06.185Z,93448.28
2023-03-17T06:23:07.769Z,93451.72
2023-03-17T06:28:10.650Z,93436.88
2023-03-17T06:33:12.546Z,93433.97
2023-03-17T06:38:14.129Z,93432.34
2023-03-17T06:43:17.306Z,93425.84
2023-03-17T06:48:19.048Z,93435.75
2023-03-17T06:53:20.974Z,93441.88
2023-03-17T06:58:24.089Z,93447.56
2023-03-17T07:03:26.805Z,93451.13
2023-03-17T07:08:28.330Z,93451.63
2023-03-17T07:13:31.181Z,93454.53
2023-03-17T07:18:32.783Z,93451.03
2023-03-17T07:23:34.371Z,93447.88
2023-03-17T07:28:37.284Z,93457.97
2023-03-17T07:33:38.847Z,93464.28
2023-03-17T07:38:40.511Z,93462.94
2023-03-17T07:43:43.304Z,93470.63
2023-03-17T07:48:44.893Z,93459.44
2023-03-17T07:53:46.781Z,93454.59
2023-03-17T07:58:49.706Z,93455.28
2023-03-17T08:03:51.366Z,93460.81
2023-03-17T08:08:53.183Z,93454.28
2023-03-17T08:13:56.173Z,93454.16
2023-03-17T08:18:58.038Z,93457.81
2023-03-17T08:23:59.742Z,93436.72
2023-03-17T08:29:02.788Z,93444.38
2023-03-17T08:34:04.465Z,93438.03
2023-03-17T08:39:06.021Z,93447.16
2023-03-17T08:44:09.388Z,93442.47
2023-03-17T08:49:11.518Z,93440.84
2023-03-17T08:54:13.170Z,93445.69
2023-03-17T08:59:17.010Z,93437.44
2023-03-17T09:04:18.726Z,93434.06
2023-03-17T09:09:20.317Z,93435.91
2023-03-17T09:14:23.186Z,93437.09
2023-03-17T09:19:24.995Z,93435.13
2023-03-17T09:24:26.469Z,93431.44
2023-03-17T09:29:29.303Z,93427.28
2023-03-17T09:34:30.970Z,93424.66
2023-03-17T09:39:32.694Z,93420.81
2023-03-17T09:44:45.899Z,93420.31
2023-03-17T09:49:48.982Z,93424.19
2023-03-17T09:54:50.617Z,93425.75
2023-03-17T09:59:59.904Z,93417.84
2023-03-17T10:05:10.966Z,93417.81
2023-03-17T10:10:15.443Z,93419.66
2023-03-17T10:15:25.240Z,93416.78
2023-03-17T10:20:28.696Z,93418.66
2023-03-17T10:25:32.561Z,93421.06
2023-03-17T10:30:35.741Z,93422.31
2023-03-17T10:35:38.434Z,93410.72
2023-03-17T10:40:40.040Z,93410.09
2023-03-17T10:45:54.921Z,93413.56
2023-03-17T10:50:58.006Z,93416.56
2023-03-17T10:56:07.070Z,93413.06
2023-03-17T11:01:17.459Z,93413.47
2023-03-17T11:06:26.414Z,93410.84
2023-03-17T11:11:29.744Z,93406.97
2023-03-17T11:16:36.952Z,93406.56
2023-03-17T11:21:47.880Z,93399.91
2023-03-17T11:26:57.791Z,93397.16
2023-03-17T11:32:13.225Z,93383.63
2023-03-17T11:37:29.680Z,93379.00
2023-03-17T11:42:43.056Z,93370.06
2023-03-17T11:48:00.012Z,93360.41
2023-03-17T11:53:20.573Z,93356.84
2023-03-17T11:58:28.865Z,93370.75
2023-03-17T12:03:39.680Z,93371.81
2023-03-17T12:08:45.305Z,93367.63
2023-03-17T12:13:51.437Z,93352.03
2023-03-17T12:19:01.679Z,93340.00
2023-03-17T12:24:11.057Z,93346.78
2023-03-17T12:29:16.734Z,93339.75
2023-03-17T12:34:26.737Z,93344.28
2023-03-17T12:39:32.158Z,93335.38
2023-03-17T12:44:45.582Z,93338.91
2023-03-17T12:50:19.046Z,93331.25
2023-03-17T12:55:24.638Z,93336.13
2023-03-17T13:00:28.855Z,93333.28
2023-03-17T13:05:33.155Z,93322.84
2023-03-17T13:10:41.359Z,93326.00
2023-03-17T13:15:59.984Z,93318.25
2023-03-17T13:21:15.122Z,93317.69
2023-03-17T13:26:19.356Z,93315.84
2023-03-17T13:31:36.199Z,93302.34
2023-03-17T13:36:45.545Z,93290.00
2023-03-17T13:42:18.070Z,93292.69
2023-03-17T13:47:32.337Z,93281.91
2023-03-17T13:52:40.894Z,93284.97
2023-03-17T13:57:42.592Z,93283.56
2023-03-17T14:02:45.208Z,93280.31
2023-03-17T14:07:54.288Z,93278.22
2023-03-17T14:13:02.940Z,93278.72
2023-03-17T14:18:09.260Z,93282.53
2023-03-17T14:23:12.132Z,93275.75
2023-03-17T14:28:17.274Z,93278.09
2023-03-17T14:33:23.707Z,93264.03
2023-03-17T14:38:32.004Z,93275.16
2023-03-17T14:43:35.046Z,93259.44
2023-03-17T14:48:39.918Z,93257.59
2023-03-17T14:53:44.004Z,93257.81
2023-03-17T14:58:46.392Z,93252.50
2023-03-17T15:03:56.411Z,93254.97
2023-03-17T15:09:01.755Z,93254.59
2023-03-17T15:14:05.957Z,93249.53
2023-03-17T15:19:16.994Z,93248.75
2023-03-17T15:24:40.550Z,93243.13
2023-03-17T15:29:42.269Z,93243.25
2023-03-17T15:34:43.757Z,93242.19
2023-03-17T15:39:47.553Z,93240.00
2023-03-17T15:44:49.075Z,93232.28
2023-03-17T15:49:50.798Z,93237.28
2023-03-17T15:54:54.950Z,93237.91
2023-03-17T15:59:56.462Z,93237.97
2023-03-17T16:04:58.878Z,93237.88
2023-03-17T16:10:01.824Z,93235.91
2023-03-17T16:15:07.745Z,93241.50
2023-03-17T16:20:26.471Z,93238.19
2023-03-17T16:25:31.847Z,93238.88
2023-03-17T16:30:34.619Z,93243.25
2023-03-17T16:35:36.410Z,93244.56
2023-03-17T16:40:40.226Z,93235.56
2023-03-17T16:45:41.730Z,93236.41
2023-03-17T16:50:43.917Z,93234.34
2023-03-17T16:55:47.058Z,93244.88
2023-03-17T17:00:50.858Z,93242.53
2023-03-17T17:05:52.382Z,93247.63
2023-03-17T17:10:56.277Z,93240.44
2023-03-17T17:15:57.881Z,93241.72
2023-03-17T17:20:59.397Z,93247.91
2023-03-17T17:26:02.377Z,93247.78
2023-03-17T17:31:03.931Z,93256.59
2023-03-17T17:36:07.906Z,93253.50
2023-03-17T17:41:11.769Z,93260.13
2023-03-17T17:46:16.690Z,93262.78
2023-03-17T17:51:18.274Z,93262.13
2023-03-17T17:56:21.266Z,93255.72
2023-03-17T18:01:23.421Z,93262.22
2023-03-17T18:06:25.054Z,93261.97
2023-03-17T18:11:28.001Z,93268.59
2023-03-17T18:16:29.516Z,93258.16
2023-03-17T18:21:31.256Z,93268.09
2023-03-17T18:26:34.465Z,93289.44
2023-03-17T18:31:40.121Z,93294.06
2023-03-17T18:36:41.831Z,93300.41
2023-03-17T18:41:45.470Z,93310.19
2023-03-17T18:46:46.999Z,93303.41
2023-03-17T18:51:48.540Z,93300.69
2023-03-17T18:56:51.360Z,93303.03
2023-03-17T19:01:52.886Z,93306.94
2023-03-17T19:06:54.388Z,93314.97
2023-03-17T19:11:57.320Z,93303.44
2023-03-17T19:16:58.983Z,93292.53
2023-03-17T19:22:00.835Z,93304.66
2023-03-17T19:27:04.088Z,93298.41
2023-03-17T19:32:05.593Z,93305.44
2023-03-17T19:37:07.275Z,93298.72
2023-03-17T19:42:10.165Z,93309.75
2023-03-17T19:47:11.694Z,93313.47
2023-03-17T19:52:13.261Z,93327.78
2023-03-17T19:57:17.079Z,93320.28
2023-03-17T20:02:18.658Z,93323.97
2023-03-17T20:07:20.384Z,93316.97
2023-03-17T20:12:23.291Z,93310.81
2023-03-17T20:17:24.842Z,93315.59
2023-03-17T20:22:26.619Z,93310.50
2023-03-17T20:27:29.503Z,93302.72
2023-03-17T20:32:31.101Z,93315.19
2023-03-17T20:37:32.714Z,93316.81
2023-03-17T20:42:35.826Z,93318.69
2023-03-17T20:47:37.750Z,93316.50
2023-03-17T20:52:39.659Z,93323.78
2023-03-17T20:57:43.880Z,93319.03
2023-03-17T21:02:45.859Z,93328.94
2023-03-17T21:07:47.589Z,93325.94
2023-03-17T21:12:53.012Z,93330.28
2023-03-17T21:17:54.904Z,93330.28
2023-03-17T21:22:56.574Z,93338.03
2023-03-17T21:27:59.599Z,93327.84
2023-03-17T21:33:01.336Z,93326.44
2023-03-17T21:38:03.822Z,93330.13
2023-03-17T21:43:06.717Z,93318.53
2023-03-17T21:48:08.217Z,93328.28
2023-03-17T21:53:12.612Z,93335.44
2023-03-17T21:58:15.501Z,93330.94
2023-03-17T22:03:17.899Z,93337.09
2023-03-17T22:08:19.559Z,93344.22
2023-03-17T22:13:22.490Z,93344.88
2023-03-17T22:18:23.998Z,93336.81
2023-03-17T22:23:26.624Z,93342.31
2023-03-17T22:28:29.638Z,93347.59
2023-03-17T22:33:31.234Z,93349.41
2023-03-17T22:38:32.785Z,93350.44
2023-03-17T22:43:36.248Z,93348.22
2023-03-17T22:48:37.764Z,93352.44
2023-03-17T22:53:40.258Z,93364.03
2023-03-17T22:58:43.836Z,93367.47
2023-03-17T23:03:45.766Z,93368.09
2023-03-17T23:08:47.821Z,93368.50
2023-03-17T23:13:51.814Z,93376.22
2023-03-17T23:18:53.385Z,93377.63
2023-03-17T23:23:55.572Z,93385.56
2023-03-17T23:28:58.420Z,93391.44
2023-03-17T23:34:00.351Z,93402.00
2023-03-17T23:39:02.185Z,93405.06
2023-03-17T23:44:05.171Z,93395.50
2023-03-17T23:49:07.017Z,93392.66
2023-03-17T23:54:08.510Z,93401.78
2023-03-17T23:59:11.416Z,93403.63
